Time;durP1;ratioP1;P1;durP2;ratioP2;P2;SDS_P1;SDS_P2;PMS_P1;PMS_P2;Temp;Humidity;BMP_temperature;BMP_pressure;BME280_temperature;BME280_humidity;BME280_pressure;Samples;Min_cycle;Max_cycle;Signal;HPM_P1;HPM_P2
2022/11/19 00:00:33;;;;;;;1999.90;999.90;;;;;;;6.23;100.00;93340.06;4975683;28;20307;-65
2022/11/19 00:02:59;;;;;;;1999.90;999.90;;;;;;;6.27;100.00;93340.75;4975838;28;20196;-65
2022/11/19 00:05:24;;;;;;;1999.90;999.90;;;;;;;6.27;100.00;93344.19;4975374;28;20286;-66
2022/11/19 00:07:49;;;;;;;1999.90;999.90;;;;;;;6.26;100.00;93345.38;4975432;28;20183;-65
2022/11/19 00:10:15;;;;;;;1999.90;999.90;;;;;;;6.28;100.00;93361.22;4975419;28;20190;-65
2022/11/19 00:12:55;;;;;;;1999.90;999.90;;;;;;;6.23;100.00;93367.16;4974925;28;20174;-65
2022/11/19 00:15:22;;;;;;;1999.90;999.90;;;;;;;6.14;100.00;93380.53;4975755;28;20230;-66
2022/11/19 00:17:48;;;;;;;1999.90;999.90;;;;;;;6.12;100.00;93389.09;4975453;28;20181;-65
2022/11/19 00:20:14;;;;;;;1999.90;999.90;;;;;;;6.09;100.00;93394.59;4975647;28;20206;-66
2022/11/19 00:22:43;;;;;;;1999.90;999.90;;;;;;;6.09;100.00;93394.59;4975413;28;20176;-66
2022/11/19 00:25:09;;;;;;;1999.90;999.90;;;;;;;6.09;100.00;93389.19;4975111;28;20206;-68
2022/11/19 00:27:35;;;;;;;1999.90;999.90;;;;;;;6.08;100.00;93393.81;4975193;28;20207;-66
2022/11/19 00:30:01;;;;;;;1999.90;999.90;;;;;;;6.09;100.00;93389.19;4975089;28;20269;-65
2022/11/19 00:32:27;;;;;;;1999.90;999.90;;;;;;;6.07;100.00;93396.97;4975623;28;20198;-66
2022/11/19 00:34:53;;;;;;;1999.90;999.90;;;;;;;6.03;100.00;93385.44;4974721;28;20313;-65
2022/11/19 00:37:19;;;;;;;1999.90;999.90;;;;;;;6.00;100.00;93381.66;4974940;28;20213;-66
2022/11/19 00:39:44;;;;;;;1999.90;999.90;;;;;;;5.95;100.00;93386.81;4974878;28;20186;-66
2022/11/19 00:42:09;;;;;;;1999.90;999.90;;;;;;;5.87;100.00;93393.56;4975822;28;20205;-66
2022/11/19 00:44:35;;;;;;;1999.90;999.90;;;;;;;5.83;100.00;93395.59;4974712;28;20185;-65
2022/11/19 00:47:00;;;;;;;1999.90;999.90;;;;;;;5.74;100.00;93393.44;4975268;28;20181;-65
2022/11/19 00:49:26;;;;;;;1999.90;999.90;;;;;;;5.74;100.00;93389.97;4975248;28;20310;-64
2022/11/19 00:51:52;;;;;;;1999.90;999.90;;;;;;;5.74;100.00;93376.44;4975229;28;20174;-64
2022/11/19 00:54:17;;;;;;;1999.90;999.90;;;;;;;5.80;100.00;93366.63;4974678;28;20222;-64
2022/11/19 00:56:42;;;;;;;1999.90;999.90;;;;;;;5.83;100.00;93363.09;4977174;28;20257;-64
2022/11/19 00:59:08;;;;;;;1999.90;999.90;;;;;;;5.85;100.00;93352.59;4980748;28;20189;-64
2022/11/19 01:01:33;;;;;;;1999.90;999.90;;;;;;;5.90;100.00;93333.16;4981191;28;20205;-71
2022/11/19 01:03:58;;;;;;;1999.90;999.90;;;;;;;5.97;100.00;93332.97;4980880;28;20265;-64
2022/11/19 01:06:24;;;;;;;1999.90;999.90;;;;;;;5.97;100.00;93332.97;4981360;28;20299;-64
2022/11/19 01:08:51;;;;;;;1999.90;999.90;;;;;;;5.97;100.00;93327.53;4981163;28;20173;-64
2022/11/19 01:11:32;;;;;;;1999.90;999.90;;;;;;;5.97;100.00;93327.53;4982032;28;20182;-65
2022/11/19 01:13:59;;;;;;;1999.90;999.90;;;;;;;6.03;100.00;93326.63;4980779;28;20177;-65
2022/11/19 01:16:26;;;;;;;1999.90;999.90;;;;;;;6.03;100.00;93320.44;4981268;28;20232;-65
2022/11/19 01:18:52;;;;;;;1999.90;999.90;;;;;;;6.04;100.00;93324.66;4981439;28;20260;-66
2022/11/19 01:21:19;;;;;;;1999.90;999.90;;;;;;;6.05;100.00;93324.22;4981496;28;20206;-66
2022/11/19 01:23:45;;;;;;;1999.90;999.90;;;;;;;6.04;100.00;93327.38;4980841;28;20183;-68
2022/11/19 01:26:11;;;;;;;1999.90;999.90;;;;;;;6.09;100.00;93330.31;4981243;28;20193;-67
2022/11/19 01:28:37;;;;;;;1999.90;999.90;;;;;;;6.14;100.00;93329.06;4980924;28;20175;-68
2022/11/19 01:31:12;;;;;;;1999.90;999.90;;;;;;;6.15;100.00;93327.88;4980900;28;20178;-67
2022/11/19 01:33:38;;;;;;;1999.90;999.90;;;;;;;6.19;100.00;93334.72;4980881;28;20236;-67
2022/11/19 01:36:06;;;;;;;1999.90;999.90;;;;;;;6.17;100.00;93336.34;4980967;28;20268;-67
2022/11/19 01:38:32;;;;;;;1999.90;999.90;;;;;;;6.21;100.00;93339.72;4981100;28;20240;-68
2022/11/19 01:40:58;;;;;;;1999.90;999.90;;;;;;;6.22;100.00;93352.06;4981184;28;20206;-67
2022/11/19 01:43:42;;;;;;;1999.90;999.90;;;;;;;6.22;100.00;93346.66;4980803;28;20186;-67
2022/11/19 01:46:09;;;;;;;1999.90;999.90;;;;;;;6.23;100.00;93359.03;4980594;28;20186;-66
2022/11/19 01:48:39;;;;;;;1999.90;999.90;;;;;;;6.22;100.00;93368.34;4980754;28;20214;-66
2022/11/19 01:51:11;;;;;;;1999.90;999.90;;;;;;;6.20;100.00;93371.47;4980745;28;20187;-67
2022/11/19 01:53:37;;;;;;;1999.90;999.90;;;;;;;6.21;100.00;93374.94;4981774;28;20186;-66
2022/11/19 01:56:05;;;;;;;1999.90;999.90;;;;;;;6.21;100.00;93380.38;4983964;28;20286;-66
2022/11/19 01:58:36;;;;;;;1999.90;999.90;;;;;;;6.24;100.00;93384.94;4983915;28;20186;-65
2022/11/19 02:01:01;;;;;;;1999.90;999.90;;;;;;;6.25;100.00;93391.88;4983658;28;20264;-65
2022/11/19 02:03:29;;;;;;;1999.90;999.90;;;;;;;6.27;100.00;93392.22;4983647;28;20197;-65
2022/11/19 02:05:56;;;;;;;1999.90;999.90;;;;;;;6.26;100.00;93393.41;4984293;28;20239;-65
2022/11/19 02:08:54;;;;;;;1999.90;999.90;;;;;;;6.24;100.00;93401.19;4980858;28;20248;-65
2022/11/19 02:11:44;;;;;;;1999.90;999.90;;;;;;;6.24;100.00;93406.63;4948868;28;20257;-65
2022/11/19 02:14:28;;;;;;;1999.90;999.90;;;;;;;6.25;100.00;93414.31;4980914;28;20185;-67
2022/11/19 02:16:59;;;;;;;1999.90;999.90;;;;;;;6.27;100.00;93416.63;4981019;28;20612;-64
2022/11/19 02:19:30;;;;;;;1999.90;999.90;;;;;;;6.28;100.00;93423.56;4980943;28;20175;-66
2022/11/19 02:22:25;;;;;;;1999.90;999.90;;;;;;;6.24;100.00;93433.72;4980454;28;20221;-67
2022/11/19 02:24:53;;;;;;;1999.90;999.90;;;;;;;6.18;100.00;93457.06;4981266;28;20184;-67
2022/11/19 02:27:21;;;;;;;1999.90;999.90;;;;;;;6.23;100.00;93481.72;4980915;28;20179;-67
2022/11/19 02:30:16;;;;;;;1999.90;999.90;;;;;;;6.24;100.00;93496.03;4980461;28;20179;-67
2022/11/19 02:32:52;;;;;;;1999.90;999.90;;;;;;;6.25;100.00;93511.13;4978447;28;20209;-65
2022/11/19 02:35:27;;;;;;;1999.90;999.90;;;;;;;6.26;100.00;93518.06;4980194;28;20286;-67
2022/11/19 02:37:57;;;;;;;1999.90;999.90;;;;;;;6.22;100.00;93528.97;4980141;28;20202;-64
2022/11/19 02:40:31;;;;;;;1999.90;999.90;;;;;;;6.25;100.00;93527.38;4980801;28;20205;-65
2022/11/19 02:43:14;;;;;;;1999.90;999.90;;;;;;;6.25;100.00;93544.41;4980667;28;20202;-64
2022/11/19 02:46:01;;;;;;;1999.90;999.90;;;;;;;6.28;100.00;93546.28;4980131;28;20178;-67
2022/11/19 02:48:32;;;;;;;1999.90;999.90;;;;;;;6.31;100.00;93552.81;4980633;28;20229;-65
2022/11/19 02:51:00;;;;;;;1999.90;999.90;;;;;;;6.28;100.00;93564.47;4980898;28;20179;-65
2022/11/19 02:53:25;;;;;;;1999.90;999.90;;;;;;;6.30;100.00;93573.72;4979887;28;20186;-65
2022/11/19 03:06:54;;;;;;;1999.90;999.90;;;;;;;6.26;100.00;93627.22;4977853;28;20171;-66
2022/11/19 03:09:21;;;;;;;1999.90;999.90;;;;;;;6.30;100.00;93632.56;4976330;28;20190;-68
2022/11/19 03:11:56;;;;;;;1999.90;999.90;;;;;;;6.31;100.00;93650.38;4976498;28;20176;-67
2022/11/19 03:17:20;;;;;;;1999.90;999.90;;;;;;;6.28;100.00;93689.16;4977557;28;20226;-66
2022/11/19 03:20:15;;;;;;;1999.90;999.90;;;;;;;6.29;100.00;93694.16;4976269;28;20269;-65
2022/11/19 03:22:59;;;;;;;1999.90;999.90;;;;;;;6.31;100.00;93699.91;4976624;28;20192;-66
2022/11/19 03:25:30;;;;;;;1999.90;999.90;;;;;;;6.27;100.00;93720.16;4976702;28;20189;-66
2022/11/19 03:28:02;;;;;;;1999.90;999.90;;;;;;;6.24;100.00;93742.66;4976647;28;20185;-64
2022/11/19 03:30:30;;;;;;;1999.90;999.90;;;;;;;6.24;100.00;93753.50;4976691;28;20233;-67
2022/11/19 03:33:12;;;;;;;1999.90;999.90;;;;;;;6.27;100.00;93758.09;4976045;28;20175;-64
2022/11/19 03:35:44;;;;;;;1999.90;999.90;;;;;;;6.27;100.00;93775.09;4976492;28;20270;-64
2022/11/19 03:38:14;;;;;;;1999.90;999.90;;;;;;;6.28;100.00;93786.72;4976607;28;20540;-64
2022/11/19 03:40:41;;;;;;;1999.90;999.90;;;;;;;6.24;100.00;93800.31;4975445;28;20293;-64
2022/11/19 03:43:10;;;;;;;1999.90;999.90;;;;;;;6.26;100.00;93806.09;4975983;28;20193;-64
2022/11/19 03:45:42;;;;;;;1999.90;999.90;;;;;;;6.21;100.00;93830.19;4976193;28;20182;-64
2022/11/19 03:48:08;;;;;;;1999.90;999.90;;;;;;;6.24;100.00;93840.22;4975591;28;20191;-68
2022/11/19 03:50:46;;;;;;;1999.90;999.90;;;;;;;6.30;100.00;93850.16;4975851;28;20185;-64
2022/11/19 03:53:12;;;;;;;1999.90;999.90;;;;;;;6.30;100.00;93866.44;4976270;28;20262;-64
2022/11/19 03:55:43;;;;;;;1999.90;999.90;;;;;;;6.30;100.00;93876.50;4976044;28;20270;-64
2022/11/19 03:58:10;;;;;;;1999.90;999.90;;;;;;;6.30;100.00;93887.34;4975611;28;20179;-63
2022/11/19 04:00:35;;;;;;;1999.90;999.90;;;;;;;6.25;100.00;93890.53;4976141;28;20246;-64
2022/11/19 04:03:00;;;;;;;1999.90;999.90;;;;;;;6.27;100.00;93901.72;4975512;28;20191;-63
2022/11/19 04:05:26;;;;;;;1999.90;999.90;;;;;;;6.27;100.00;93910.59;4976106;28;20206;-65
2022/11/19 04:07:51;;;;;;;1999.90;999.90;;;;;;;6.28;100.00;93916.81;4975377;28;20573;-65
2022/11/19 04:10:16;;;;;;;1999.90;999.90;;;;;;;6.22;100.00;93924.63;4975402;28;20221;-66
2022/11/19 04:12:42;;;;;;;1999.90;999.90;;;;;;;6.26;100.00;93930.78;4975399;28;20179;-66
2022/11/19 04:15:11;;;;;;;1999.90;999.90;;;;;;;6.25;100.00;93929.25;4975318;28;20194;-65
2022/11/19 04:17:37;;;;;;;1999.90;999.90;;;;;;;6.23;100.00;93941.69;4975768;28;20188;-66
2022/11/19 04:20:04;;;;;;;1999.90;999.90;;;;;;;6.24;100.00;93943.94;4974729;28;20179;-65
2022/11/19 04:22:30;;;;;;;1999.90;999.90;;;;;;;6.21;100.00;93954.84;4975071;28;20611;-66
2022/11/19 04:24:55;;;;;;;1999.90;999.90;;;;;;;6.20;100.00;93956.03;4975741;28;20279;-67
2022/11/19 04:27:21;;;;;;;1999.90;999.90;;;;;;;6.21;100.00;93960.28;4974951;28;20183;-66
2022/11/19 04:29:46;;;;;;;1999.90;999.90;;;;;;;6.16;100.00;93963.47;4975964;28;20266;-66
2022/11/19 04:32:11;;;;;;;1999.90;999.90;;;;;;;6.14;100.00;93965.81;4974090;28;20180;-66
2022/11/19 04:34:37;;;;;;;1999.90;999.90;;;;;;;6.10;100.00;93967.81;4975788;28;20182;-66
2022/11/19 04:37:02;;;;;;;1999.90;999.90;;;;;;;6.09;100.00;93963.56;4974989;28;20188;-65
2022/11/19 04:39:27;;;;;;;1999.90;999.90;;;;;;;6.03;100.00;93967.91;4975270;28;20186;-66
2022/11/19 04:41:53;;;;;;;1999.90;999.90;;;;;;;6.08;100.00;93962.00;4974738;28;20210;-65
2022/11/19 04:44:18;;;;;;;1999.90;999.90;;;;;;;6.07;100.00;93957.78;4975020;28;20183;-67
2022/11/19 04:46:44;;;;;;;1999.90;999.90;;;;;;;6.07;100.00;93955.06;4974874;28;20190;-68
2022/11/19 04:49:09;;;;;;;1999.90;999.90;;;;;;;6.01;100.00;93945.88;4974771;28;20182;-67
2022/11/19 04:51:34;;;;;;;1999.90;999.90;;;;;;;5.98;100.00;93930.44;4974815;28;20210;-67
2022/11/19 04:54:00;;;;;;;1999.90;999.90;;;;;;;5.96;100.00;93927.38;4974608;28;20234;-67
2022/11/19 04:56:25;;;;;;;1999.90;999.90;;;;;;;5.97;100.00;93928.88;4975380;28;20240;-68
2022/11/19 04:58:50;;;;;;;1999.90;999.90;;;;;;;5.96;100.00;93914.59;4974832;28;20178;-67
2022/11/19 05:01:16;;;;;;;1999.90;999.90;;;;;;;5.93;100.00;93901.09;4975419;28;20228;-65
2022/11/19 05:03:41;;;;;;;1999.90;999.90;;;;;;;5.92;100.00;93904.97;4974682;28;20280;-65
2022/11/19 05:06:07;;;;;;;1999.90;999.90;;;;;;;5.89;100.00;93892.25;4975142;28;20189;-65
2022/11/19 05:08:32;;;;;;;1999.90;999.90;;;;;;;5.89;100.00;93878.72;4974728;28;20178;-66
2022/11/19 05:10:57;;;;;;;1999.90;999.90;;;;;;;5.88;100.00;93877.19;4974733;28;20209;-66
2022/11/19 05:13:23;;;;;;;1999.90;999.90;;;;;;;5.88;100.00;93866.34;4974944;28;20185;-66
2022/11/19 05:15:48;;;;;;;1999.90;999.90;;;;;;;5.93;100.00;93857.75;4974267;28;20187;-66
2022/11/19 05:18:13;;;;;;;1999.90;999.90;;;;;;;5.92;100.00;93850.81;4975148;28;20256;-66
2022/11/19 05:20:39;;;;;;;1999.90;999.90;;;;;;;5.98;100.00;93849.19;4974512;28;20329;-67
2022/11/19 05:23:04;;;;;;;1999.90;999.90;;;;;;;6.01;100.00;93834.81;4974267;28;20186;-68
2022/11/19 05:25:30;;;;;;;1999.90;999.90;;;;;;;6.05;100.00;93833.56;4974268;28;20184;-68
2022/11/19 05:27:55;;;;;;;1999.90;999.90;;;;;;;6.07;100.00;93823.09;4974628;28;20197;-68
2022/11/19 05:30:21;;;;;;;1999.90;999.90;;;;;;;6.08;100.00;93827.31;4974592;28;20209;-68
2022/11/19 05:32:47;;;;;;;1999.90;999.90;;;;;;;6.07;100.00;93814.19;4974273;28;20187;-69
2022/11/19 05:35:12;;;;;;;1999.90;999.90;;;;;;;6.07;100.00;93806.06;4974356;28;20233;-68
2022/11/19 05:37:37;;;;;;;1999.90;999.90;;;;;;;6.00;100.00;93808.88;4974548;28;20189;-65
2022/11/19 05:40:03;;;;;;;1999.90;999.90;;;;;;;5.99;100.00;93791.88;4974131;28;20199;-66
2022/11/19 05:42:29;;;;;;;1999.90;999.90;;;;;;;5.97;100.00;93769.06;4975009;28;20189;-66
2022/11/19 05:44:54;;;;;;;1999.90;999.90;;;;;;;5.97;100.00;93763.66;4977610;28;20182;-65
2022/11/19 05:47:20;;;;;;;1999.90;999.90;;;;;;;5.97;100.00;93758.22;4978656;28;20191;-65
2022/11/19 05:49:45;;;;;;;1999.90;999.90;;;;;;;5.98;100.00;93748.94;4977630;28;20178;-66
2022/11/19 05:52:10;;;;;;;1999.90;999.90;;;;;;;5.99;100.00;93742.34;4978535;28;20192;-65
2022/11/19 05:54:36;;;;;;;1999.90;999.90;;;;;;;5.96;100.00;93743.16;4977631;28;20259;-67
2022/11/19 05:57:02;;;;;;;1999.90;999.90;;;;;;;5.98;100.00;93729.97;4977793;28;20273;-64
2022/11/19 05:59:27;;;;;;;1999.90;999.90;;;;;;;5.95;100.00;93725.38;4977874;28;20195;-67
2022/11/19 06:01:53;;;;;;;1999.90;999.90;;;;;;;5.99;100.00;93713.31;4978321;28;20273;-67
2022/11/19 06:04:18;;;;;;;1999.90;999.90;;;;;;;6.00;100.00;93695.09;4977611;28;20268;-66
2022/11/19 06:06:43;;;;;;;1999.90;999.90;;;;;;;6.00;100.00;93697.81;4977529;28;20304;-67
2022/11/19 06:09:09;;;;;;;1999.90;999.90;;;;;;;5.97;100.00;93687.78;4977622;28;20205;-68
2022/11/19 06:11:46;;;;;;;1999.90;999.90;;;;;;;5.91;100.00;93682.09;4977563;28;20208;-67
2022/11/19 06:14:12;;;;;;;1999.90;999.90;;;;;;;5.94;100.00;93664.28;4978033;28;20174;-69
2022/11/19 06:16:37;;;;;;;1999.90;999.90;;;;;;;5.90;100.00;93658.16;4977679;28;20181;-65
2022/11/19 06:19:02;;;;;;;1999.90;999.90;;;;;;;5.92;100.00;93655.78;4977132;28;20188;-63
2022/11/19 06:21:28;;;;;;;1999.90;999.90;;;;;;;5.94;100.00;93648.03;4977281;28;20278;-65
2022/11/19 06:23:53;;;;;;;1999.90;999.90;;;;;;;5.95;100.00;93644.13;4977258;28;20200;-64
2022/11/19 06:26:23;;;;;;;1999.90;999.90;;;;;;;5.94;100.00;93637.19;4977346;28;20177;-64
2022/11/19 06:28:48;;;;;;;1999.90;999.90;;;;;;;5.92;100.00;93634.88;4977656;28;20189;-65
2022/11/19 06:31:13;;;;;;;1999.90;999.90;;;;;;;5.96;100.00;93616.63;4976902;28;20182;-65
2022/11/19 06:33:39;;;;;;;1999.90;999.90;;;;;;;5.96;100.00;93618.56;4977285;28;20265;-65
2022/11/19 06:36:05;;;;;;;1999.90;999.90;;;;;;;5.95;100.00;93625.94;4977257;28;20185;-64
2022/11/19 06:38:30;;;;;;;1999.90;999.90;;;;;;;6.01;100.00;93623.50;4976726;28;20209;-64
2022/11/19 06:40:55;;;;;;;1999.90;999.90;;;;;;;6.03;100.00;93621.91;4977036;28;20204;-66
2022/11/19 06:43:20;;;;;;;1999.90;999.90;;;;;;;6.10;100.00;93629.13;4977530;28;20190;-65
2022/11/19 06:45:46;;;;;;;1999.90;999.90;;;;;;;6.09;100.00;93628.34;4976586;28;20175;-67
2022/11/19 06:48:11;;;;;;;1999.90;999.90;;;;;;;6.08;100.00;93631.47;4976908;28;20202;-64
2022/11/19 06:50:37;;;;;;;1999.90;999.90;;;;;;;6.12;100.00;93632.19;4977008;28;20174;-65
2022/11/19 06:53:02;;;;;;;1999.90;999.90;;;;;;;6.12;100.00;93637.59;4976892;28;20186;-67
2022/11/19 06:55:27;;;;;;;1999.90;999.90;;;;;;;6.17;100.00;93645.22;4975744;28;20233;-64
2022/11/19 06:57:53;;;;;;;1999.90;999.90;;;;;;;6.18;100.00;93635.91;4976662;28;20183;-65
2022/11/19 07:00:18;;;;;;;1999.90;999.90;;;;;;;6.21;100.00;93651.34;4976601;28;20189;-64
2022/11/19 07:02:43;;;;;;;1999.90;999.90;;;;;;;6.24;100.00;93645.09;4976514;28;20227;-65
2022/11/19 07:05:09;;;;;;;1999.90;999.90;;;;;;;6.28;100.00;93645.78;4976308;28;20235;-67
2022/11/19 07:07:34;;;;;;;1999.90;999.90;;;;;;;6.38;100.00;93647.53;4976366;28;20233;-70
2022/11/19 07:10:00;;;;;;;1999.90;999.90;;;;;;;6.44;100.00;93660.16;4977256;28;20258;-64
2022/11/19 07:12:26;;;;;;;1999.90;999.90;;;;;;;6.47;100.00;93658.53;4976994;28;20277;-61
2022/11/19 07:14:51;;;;;;;1999.90;999.90;;;;;;;6.48;100.00;93670.91;4976764;28;20179;-63
2022/11/19 07:17:17;;;;;;;1999.90;999.90;;;;;;;6.57;100.00;93684.69;4976413;28;20177;-61
2022/11/19 07:19:42;;;;;;;1999.90;999.90;;;;;;;6.61;100.00;93696.22;4976337;28;20184;-63
2022/11/19 07:22:07;;;;;;;1999.90;999.90;;;;;;;6.65;100.00;93707.75;4976983;28;20211;-64
2022/11/19 07:24:33;;;;;;;1999.90;999.90;;;;;;;6.73;100.00;93719.97;4976488;28;20214;-63
2022/11/19 07:26:58;;;;;;;1999.90;999.90;;;;;;;6.89;100.00;93733.59;4975864;28;20175;-63
2022/11/19 07:29:23;;;;;;;1999.90;999.90;;;;;;;7.29;100.00;93735.03;4976322;28;20182;-66
2022/11/19 07:31:49;;;;;;;1999.90;999.90;;;;;;;7.67;100.00;93749.63;4976096;28;20304;-67
2022/11/19 07:34:16;;;;;;;1999.90;999.90;;;;;;;7.92;100.00;93785.13;4975951;28;20644;-65
2022/11/19 07:36:42;;;;;;;1999.90;999.90;;;;;;;8.25;100.00;93830.16;4976668;28;20222;-67
2022/11/19 07:39:08;;;;;;;1999.90;999.90;;;;;;;8.41;100.00;93898.13;4975612;28;20359;-67
2022/11/19 07:44:17;;;;;;;1999.90;999.90;;;;;;;8.34;100.00;94028.09;4977009;28;20220;-66
2022/11/19 07:46:43;;;;;;;1999.90;999.90;;;;;;;8.04;100.00;94088.09;4975894;28;20180;-63
2022/11/19 07:49:08;;;;;;;1999.90;999.90;;;;;;;8.07;100.00;94115.22;4976327;28;20315;-66
2022/11/19 07:51:33;;;;;;;1999.90;999.90;;;;;;;8.17;100.00;94146.88;4976093;28;20169;-65
2022/11/19 07:53:59;;;;;;;1999.90;999.90;;;;;;;8.30;100.00;94172.28;4975231;28;20555;-66
2022/11/19 07:56:24;;;;;;;1999.90;999.90;;;;;;;8.54;100.00;94198.25;4975187;28;20244;-67
2022/11/19 07:58:50;;;;;;;1999.90;999.90;;;;;;;8.98;100.00;94229.59;4976289;28;20181;-67
2022/11/19 08:01:19;;;;;;;1999.90;999.90;;;;;;;8.97;100.00;94268.91;4975849;28;20197;-66
2022/11/19 08:03:45;;;;;;;1999.90;999.90;;;;;;;9.00;100.00;94296.06;4975966;28;20197;-65
2022/11/19 08:06:12;;;;;;;1999.90;999.90;;;;;;;9.62;100.00;94325.88;4974318;28;20176;-67
2022/11/19 08:08:38;;;;;;;1999.90;999.90;;;;;;;9.82;100.00;94356.59;4975493;28;20219;-62
2022/11/19 08:11:05;;;;;;;1999.90;999.90;;;;;;;10.33;100.00;94403.38;4975307;28;20244;-62
2022/11/19 08:13:32;;;;;;;1999.90;999.90;;;;;;;10.35;100.00;94436.47;4975390;28;20218;-62
2022/11/19 08:16:05;;;;;;;1999.90;999.90;;;;;;;10.13;100.00;94460.75;4975409;28;20204;-62
2022/11/19 08:18:31;;;;;;;1999.90;999.90;;;;;;;9.68;100.00;94471.38;4975666;28;20205;-61
2022/11/19 08:21:05;;;;;;;1999.90;999.90;;;;;;;9.60;100.00;94463.75;4975024;28;20222;-61
2022/11/19 08:23:31;;;;;;;1999.90;999.90;;;;;;;9.68;100.00;94459.69;4974915;28;20212;-62
2022/11/19 08:25:57;;;;;;;1999.90;999.90;;;;;;;10.14;100.00;94463.03;4974942;28;20252;-67
2022/11/19 08:28:22;;;;;;;1999.90;999.90;;;;;;;11.10;100.00;94464.28;4975176;28;20265;-65
2022/11/19 08:30:48;;;;;;;1999.90;999.90;;;;;;;12.23;100.00;94492.84;4975118;28;20177;-67
2022/11/19 08:33:13;;;;;;;1999.90;999.90;;;;;;;12.40;100.00;94510.72;4975239;28;20214;-64
2022/11/19 08:35:39;;;;;;;1999.90;999.90;;;;;;;13.01;100.00;94528.41;4974883;28;20169;-65
2022/11/19 08:38:04;;;;;;;1999.90;999.90;;;;;;;12.83;100.00;94535.66;4974661;28;20223;-65
2022/11/19 08:40:29;;;;;;;1999.90;999.90;;;;;;;12.68;100.00;94548.25;4974819;28;20197;-59
2022/11/19 08:43:00;;;;;;;1999.90;999.90;;;;;;;12.44;100.00;94544.25;4975176;28;20179;-64
2022/11/19 08:45:32;;;;;;;1999.90;999.90;;;;;;;12.48;100.00;94536.69;4974761;28;20180;-63
2022/11/19 08:47:59;;;;;;;1999.90;999.90;;;;;;;13.06;100.00;94546.31;4975100;28;20263;-63
2022/11/19 08:50:25;;;;;;;1999.90;999.90;;;;;;;14.59;100.00;94550.44;4975189;28;20177;-62
2022/11/19 08:52:56;;;;;;;1999.90;999.90;;;;;;;14.01;100.00;94549.38;4975845;28;20177;-64
2022/11/19 08:55:22;;;;;;;1999.90;999.90;;;;;;;13.32;100.00;94548.59;4975075;28;20221;-61
2022/11/19 08:57:47;;;;;;;1999.90;999.90;;;;;;;13.13;100.00;94557.81;4974754;28;20176;-63
2022/11/19 09:00:13;;;;;;;1999.90;999.90;;;;;;;12.61;100.00;94559.41;4975150;28;20172;-64
2022/11/19 09:02:38;;;;;;;1999.90;999.90;;;;;;;12.88;100.00;94566.00;4975165;28;20240;-60
2022/11/19 09:05:04;;;;;;;1999.90;999.90;;;;;;;13.46;100.00;94561.06;4974479;28;20555;-61
2022/11/19 09:07:29;;;;;;;1999.90;999.90;;;;;;;14.26;100.00;94560.28;4974665;28;20173;-62
2022/11/19 09:09:55;;;;;;;1999.90;999.90;;;;;;;13.85;100.00;94568.78;4974557;28;20199;-63
2022/11/19 09:12:20;;;;;;;1999.90;999.90;;;;;;;13.87;100.00;94571.81;4974796;28;20192;-62
2022/11/19 09:14:46;;;;;;;1999.90;999.90;;;;;;;13.12;100.00;94577.44;4974634;28;20183;-62
2022/11/19 09:17:11;;;;;;;1999.90;999.90;;;;;;;12.67;100.00;94574.09;4974636;28;20537;-59
2022/11/19 09:19:37;;;;;;;1999.90;999.90;;;;;;;12.29;100.00;94570.50;4978175;28;20168;-63
2022/11/19 09:22:03;;;;;;;1999.90;999.90;;;;;;;12.22;100.00;94576.19;4978471;28;20200;-61
2022/11/19 09:24:28;;;;;;;1999.90;999.90;;;;;;;11.87;100.00;94575.16;4978946;28;20204;-61
2022/11/19 09:26:53;;;;;;;1999.90;999.90;;;;;;;11.76;100.00;94579.41;4978016;28;20652;-61
2022/11/19 09:29:19;;;;;;;1999.90;999.90;;;;;;;11.73;100.00;94577.50;4978707;28;20200;-62
2022/11/19 09:31:44;;;;;;;1999.90;999.90;;;;;;;11.52;100.00;94578.03;4978910;28;20197;-61
2022/11/19 09:34:10;;;;;;;1999.90;999.90;;;;;;;11.25;100.00;94572.06;4978152;28;20178;-61
2022/11/19 09:36:35;;;;;;;1999.90;999.90;;;;;;;10.83;100.00;94582.00;4978280;28;20303;-63
2022/11/19 09:39:01;;;;;;;1999.90;999.90;;;;;;;10.73;100.00;94593.94;4978372;28;20171;-67
2022/11/19 09:41:48;;;;;;;1999.90;999.90;;;;;;;10.73;100.00;94583.00;4978712;28;20202;-68
2022/11/19 09:44:36;;;;;;;1999.90;999.90;;;;;;;10.74;100.00;94594.72;4978031;28;20194;-68
2022/11/19 09:47:13;;;;;;;1999.90;999.90;;;;;;;10.74;100.00;94587.28;4977872;28;20187;-69
2022/11/19 09:49:47;;;;;;;1999.90;999.90;;;;;;;11.02;100.00;94588.59;4977498;28;20182;-68
2022/11/19 09:52:17;;;;;;;1999.90;999.90;;;;;;;10.86;100.00;94592.09;4978391;28;20173;-67
2022/11/19 09:54:49;;;;;;;1999.90;999.90;;;;;;;10.92;100.00;94595.09;4977690;28;20227;-62
2022/11/19 09:57:29;;;;;;;1999.90;999.90;;;;;;;10.85;100.00;94596.00;4978039;28;20198;-69
2022/11/19 09:59:59;;;;;;;1999.90;999.90;;;;;;;10.51;100.00;94594.81;4978213;28;20175;-69
2022/11/19 10:02:25;;;;;;;1999.90;999.90;;;;;;;10.55;100.00;94603.69;4978059;28;20231;-69
2022/11/19 10:04:51;;;;;;;1999.90;999.90;;;;;;;10.58;100.00;94594.66;4977658;28;20280;-71
2022/11/19 10:07:22;;;;;;;1999.90;999.90;;;;;;;10.59;100.00;94593.47;4978154;28;20182;-68
2022/11/19 10:10:10;;;;;;;1999.90;999.90;;;;;;;10.43;100.00;94590.69;4977643;28;20243;-69
2022/11/19 10:12:41;;;;;;;1999.90;999.90;;;;;;;10.35;100.00;94592.03;4977837;28;20194;-61
2022/11/19 10:15:34;;;;;;;1999.90;999.90;;;;;;;10.10;100.00;94593.28;4977463;28;20277;-58
2022/11/19 10:18:14;;;;;;;1999.90;999.90;;;;;;;10.04;100.00;94592.22;4977184;28;20173;-62
2022/11/19 10:20:58;;;;;;;1999.90;999.90;;;;;;;10.00;100.00;94591.50;4977980;28;20219;-62
2022/11/19 10:23:35;;;;;;;1999.90;999.90;;;;;;;9.92;100.00;94595.53;4977780;28;20184;-62
2022/11/19 10:26:09;;;;;;;1999.90;999.90;;;;;;;9.66;100.00;94596.41;4977894;28;20600;-62
2022/11/19 10:28:39;;;;;;;1999.90;999.90;;;;;;;9.66;100.00;94593.69;4976974;28;20263;-61
2022/11/19 10:31:24;;;;;;;1999.90;999.90;;;;;;;9.64;100.00;94596.06;4976521;28;20243;-62
2022/11/19 10:34:01;;;;;;;1999.90;999.90;;;;;;;9.69;100.00;94594.84;4977700;28;20173;-59
2022/11/19 10:36:37;;;;;;;1999.90;999.90;;;;;;;9.77;100.00;94579.88;4977694;28;20219;-63
2022/11/19 10:39:23;;;;;;;1999.90;999.90;;;;;;;9.90;100.00;94578.84;4976784;28;20183;-63
2022/11/19 10:42:07;;;;;;;1999.90;999.90;;;;;;;10.01;100.00;94582.13;4977360;28;20300;-62
2022/11/19 10:44:36;;;;;;;1999.90;999.90;;;;;;;10.06;100.00;94583.66;4976992;28;20164;-63
2022/11/19 10:47:03;;;;;;;1999.90;999.90;;;;;;;9.94;100.00;94582.28;4976803;28;20191;-63
2022/11/19 10:49:29;;;;;;;1999.90;999.90;;;;;;;10.05;100.00;94582.06;4977396;28;20184;-64
2022/11/19 10:51:54;;;;;;;1999.90;999.90;;;;;;;10.03;100.00;94576.25;4976937;28;20180;-59
2022/11/19 10:54:29;;;;;;;1999.90;999.90;;;;;;;10.28;100.00;94583.97;4976512;28;20216;-59
2022/11/19 10:56:55;;;;;;;1999.90;999.90;;;;;;;10.38;100.00;94574.81;4976555;28;20307;-59
2022/11/19 10:59:24;;;;;;;1999.90;999.90;;;;;;;10.10;100.00;94579.63;4976675;28;20635;-59
2022/11/19 11:01:55;;;;;;;1999.90;999.90;;;;;;;10.12;100.00;94575.75;4976521;28;20201;-60
2022/11/19 11:04:23;;;;;;;1999.90;999.90;;;;;;;10.18;100.00;94566.63;4976395;28;20190;-59
2022/11/19 11:06:54;;;;;;;1999.90;999.90;;;;;;;10.31;100.00;94572.22;4976383;28;20399;-59
2022/11/19 11:09:42;;;;;;;1999.90;999.90;;;;;;;10.41;100.00;94560.34;4976536;28;20179;-60
2022/11/19 11:15:25;;;;;;;1999.90;999.90;;;;;;;10.44;100.00;94564.91;4977512;28;20172;-62
2022/11/19 11:18:08;;;;;;;1999.90;999.90;;;;;;;10.53;100.00;94563.19;4976819;28;20243;-63